createdAt,value
2022-08-26T00:02:13.144Z,101326.19
2022-08-26T00:04:45.067Z,101322.97
2022-08-26T00:07:14.953Z,101332.38
2022-08-26T00:09:47.491Z,101328.66
2022-08-26T00:12:16.930Z,101333.81
2022-08-26T00:14:47.202Z,101336.41
2022-08-26T00:17:16.599Z,101336.13
2022-08-26T00:19:45.882Z,101336.53
2022-08-26T00:22:20.280Z,101331.81
2022-08-26T00:24:51.113Z,101336.34
2022-08-26T00:27:20.473Z,101332.38
2022-08-26T00:29:50.251Z,101331.41
2022-08-26T00:32:20.199Z,101331.63
2022-08-26T00:34:49.512Z,101346.25
2022-08-26T00:37:18.967Z,101336.84
2022-08-26T00:39:48.723Z,101341.50
2022-08-26T00:42:18.562Z,101344.88
2022-08-26T00:44:47.894Z,101335.47
2022-08-26T00:47:26.843Z,101336.19
2022-08-26T00:50:02.751Z,101342.94
2022-08-26T00:52:32.755Z,101342.63
2022-08-26T00:55:34.493Z,101336.81
2022-08-26T00:58:09.719Z,101330.97
2022-08-26T01:00:39.259Z,101341.75
2022-08-26T01:03:12.683Z,101332.56
2022-08-26T01:05:43.943Z,101337.81
2022-08-26T01:08:13.433Z,101345.63
2022-08-26T01:10:43.405Z,101336.81
2022-08-26T01:13:14.343Z,101339.38
2022-08-26T01:15:50.494Z,101343.91
2022-08-26T01:18:20.817Z,101346.50
2022-08-26T01:20:58.631Z,101340.75
2022-08-26T01:23:33.671Z,101341.34
2022-08-26T01:26:15.343Z,101340.06
2022-08-26T01:28:51.810Z,101346.88
2022-08-26T01:31:23.845Z,101351.13
2022-08-26T01:34:04.420Z,101348.25
2022-08-26T01:36:34.155Z,101342.31
2022-08-26T01:39:05.828Z,101344.97
2022-08-26T01:41:38.725Z,101354.31
2022-08-26T01:44:10.812Z,101362.91
2022-08-26T01:46:40.848Z,101365.50
2022-08-26T01:49:13.308Z,101362.13
2022-08-26T01:51:44.557Z,101365.38
2022-08-26T01:54:15.338Z,101368.94
2022-08-26T01:56:44.803Z,101364.97
2022-08-26T01:59:17.937Z,101357.91
2022-08-26T02:01:50.897Z,101359.00
2022-08-26T02:04:31.055Z,101359.53
2022-08-26T02:07:00.996Z,101358.91
2022-08-26T02:09:31.044Z,101361.47
2022-08-26T02:12:03.628Z,101355.94
2022-08-26T02:14:43.831Z,101360.69
2022-08-26T02:17:14.114Z,101353.88
2022-08-26T02:19:48.028Z,101353.59
2022-08-26T02:22:21.769Z,101353.00
2022-08-26T02:25:02.375Z,101365.78
2022-08-26T02:27:35.124Z,101358.75
2022-08-26T02:30:10.995Z,101359.75
2022-08-26T02:32:41.260Z,101360.03
2022-08-26T02:35:12.960Z,101355.88
2022-08-26T02:37:42.785Z,101361.53
2022-08-26T02:40:15.225Z,101355.28
2022-08-26T02:42:45.215Z,101362.91
2022-08-26T02:45:23.040Z,101361.09
2022-08-26T02:47:54.239Z,101360.59
2022-08-26T02:50:27.041Z,101351.63
2022-08-26T02:52:56.491Z,101351.63
2022-08-26T02:55:25.926Z,101347.38
2022-08-26T02:57:55.892Z,101346.50
2022-08-26T03:00:25.472Z,101348.69
2022-08-26T03:02:55.023Z,101356.41
2022-08-26T03:05:24.923Z,101350.16
2022-08-26T03:07:55.188Z,101356.63
2022-08-26T03:10:24.900Z,101365.13
2022-08-26T03:12:55.584Z,101361.16
2022-08-26T03:15:25.711Z,101370.88
2022-08-26T03:17:55.054Z,101369.31
2022-08-26T03:20:26.790Z,101369.09
2022-08-26T03:22:56.967Z,101378.78
2022-08-26T03:25:27.305Z,101377.41
2022-08-26T03:27:56.627Z,101378.47
2022-08-26T03:30:44.216Z,101377.81
2022-08-26T03:33:16.329Z,101378.06
2022-08-26T03:35:47.933Z,101377.28
2022-08-26T03:38:21.409Z,101378.47
2022-08-26T03:40:51.107Z,101377.72
2022-08-26T03:43:24.715Z,101382.16
2022-08-26T03:45:54.786Z,101362.75
2022-08-26T03:48:24.096Z,101371.25
2022-08-26T03:50:54.177Z,101365.72
2022-08-26T03:53:23.863Z,101369.31
2022-08-26T03:55:53.264Z,101373.44
2022-08-26T03:58:24.298Z,101376.13
2022-08-26T04:00:55.633Z,101374.25
2022-08-26T04:03:38.423Z,101376.91
2022-08-26T04:06:08.154Z,101378.69
2022-08-26T04:08:39.548Z,101371.88
2022-08-26T04:11:10.604Z,101379.78
2022-08-26T04:13:40.071Z,101371.06
2022-08-26T04:16:12.514Z,101379.78
2022-08-26T04:18:46.445Z,101377.03
2022-08-26T04:21:16.800Z,101379.09
2022-08-26T04:23:47.496Z,101377.72
2022-08-26T04:26:17.535Z,101376.91
2022-08-26T04:28:46.892Z,101384.00
2022-08-26T04:31:19.642Z,101375.59
2022-08-26T04:33:51.428Z,101387.09
2022-08-26T04:36:21.315Z,101386.13
2022-08-26T04:38:50.846Z,101388.78
2022-08-26T04:41:22.270Z,101376.19
2022-08-26T04:43:51.643Z,101381.94
2022-08-26T04:46:25.595Z,101379.56
2022-08-26T04:48:56.877Z,101387.47
2022-08-26T04:51:28.037Z,101393.22
2022-08-26T04:53:59.179Z,101394.81
2022-08-26T04:56:35.022Z,101396.19
2022-08-26T04:59:06.232Z,101397.06
2022-08-26T05:01:39.625Z,101402.09
2022-08-26T05:04:09.202Z,101406.84
2022-08-26T05:06:38.623Z,101401.91
2022-08-26T05:09:09.233Z,101407.72
2022-08-26T05:11:38.856Z,101408.06
2022-08-26T05:14:08.723Z,101408.06
2022-08-26T05:16:40.343Z,101410.94
2022-08-26T05:19:13.943Z,101412.22
2022-08-26T05:21:48.446Z,101395.94
2022-08-26T05:24:18.448Z,101402.69
2022-08-26T05:26:48.387Z,101404.56
2022-08-26T05:29:18.623Z,101408.22
2022-08-26T05:31:49.332Z,101418.53
2022-08-26T05:34:20.810Z,101418.31
2022-08-26T05:36:50.828Z,101403.66
2022-08-26T05:39:21.472Z,101414.69
2022-08-26T05:41:50.813Z,101413.38
2022-08-26T05:44:22.437Z,101408.84
2022-08-26T05:46:51.935Z,101421.91
2022-08-26T05:49:22.482Z,101420.72
2022-08-26T05:51:55.649Z,101421.28
2022-08-26T05:54:25.091Z,101438.53
2022-08-26T05:56:54.782Z,101431.28
2022-08-26T05:59:24.863Z,101432.56
2022-08-26T06:01:55.067Z,101430.19
2022-08-26T06:04:29.209Z,101430.78
2022-08-26T06:06:58.894Z,101430.78
2022-08-26T06:09:28.422Z,101434.16
2022-08-26T06:12:01.881Z,101442.69
2022-08-26T06:14:31.542Z,101433.06
2022-08-26T06:17:00.957Z,101431.38
2022-08-26T06:19:32.718Z,101429.28
2022-08-26T06:22:23.452Z,101433.97
2022-08-26T06:25:05.956Z,101440.28
2022-08-26T06:27:37.437Z,101435.53
2022-08-26T06:30:12.394Z,101444.91
2022-08-26T06:32:41.814Z,101448.50
2022-08-26T06:35:13.294Z,101456.41
2022-08-26T06:37:43.996Z,101450.13
2022-08-26T06:40:13.961Z,101459.56
2022-08-26T06:42:43.551Z,101455.69
2022-08-26T06:45:13.904Z,101463.03
2022-08-26T06:47:43.263Z,101457.56
2022-08-26T06:50:12.752Z,101459.44
2022-08-26T06:52:44.564Z,101462.00
2022-08-26T06:55:13.940Z,101469.41
2022-08-26T06:57:43.278Z,101471.72
2022-08-26T07:00:13.495Z,101472.78
2022-08-26T07:02:46.222Z,101464.88
2022-08-26T07:05:16.685Z,101467.34
2022-08-26T07:07:46.006Z,101466.75
2022-08-26T07:10:15.670Z,101468.06
2022-08-26T07:12:47.110Z,101466.19
2022-08-26T07:15:16.694Z,101482.44
2022-08-26T07:17:46.205Z,101468.63
2022-08-26T07:20:15.631Z,101473.75
2022-08-26T07:22:46.000Z,101476.19
2022-08-26T07:25:15.369Z,101467.84
2022-08-26T07:27:45.179Z,101478.66
2022-08-26T07:30:15.124Z,101476.16
2022-08-26T07:32:45.440Z,101480.75
2022-08-26T07:35:14.944Z,101482.72
2022-08-26T07:37:45.503Z,101484.06
2022-08-26T07:40:14.932Z,101488.53
2022-08-26T07:42:45.804Z,101490.91
2022-08-26T07:45:15.192Z,101494.38
2022-08-26T07:47:44.868Z,101493.28
2022-08-26T07:50:14.443Z,101503.75
2022-08-26T07:52:44.795Z,101499.75
2022-08-26T07:55:14.862Z,101501.41
2022-08-26T07:57:44.946Z,101508.16
2022-08-26T08:00:18.659Z,101506.06
2022-08-26T08:02:49.353Z,101502.69
2022-08-26T08:05:21.583Z,101506.41
2022-08-26T08:07:53.493Z,101512.38
2022-08-26T08:10:30.330Z,101509.50
2022-08-26T08:13:01.514Z,101512.38
2022-08-26T08:15:33.586Z,101513.13
2022-08-26T08:18:06.544Z,101507.22
2022-08-26T08:21:04.595Z,101515.28
2022-08-26T08:23:35.651Z,101503.31
2022-08-26T08:26:08.330Z,101509.94
2022-08-26T08:28:38.448Z,101495.41
2022-08-26T08:31:08.702Z,101506.91
2022-08-26T08:33:38.184Z,101516.25
2022-08-26T08:36:09.290Z,101515.41
2022-08-26T08:38:40.216Z,101520.06
2022-08-26T08:41:48.046Z,101506.69
2022-08-26T08:47:22.285Z,101507.94
2022-08-26T08:49:51.700Z,101516.66
2022-08-26T08:52:40.609Z,101523.38
2022-08-26T08:55:13.670Z,101520.50
2022-08-26T08:58:02.265Z,101518.00
2022-08-26T09:00:42.260Z,101520.94
2022-08-26T09:03:43.101Z,101525.88
2022-08-26T09:06:17.444Z,101533.09
2022-08-26T09:08:50.770Z,101528.91
2022-08-26T09:11:21.432Z,101533.53
2022-08-26T09:13:56.127Z,101531.09
2022-08-26T09:17:03.231Z,101522.41
2022-08-26T09:19:50.486Z,101526.63
2022-08-26T09:22:38.623Z,101533.53
2022-08-26T09:25:12.189Z,101530.75
2022-08-26T09:27:47.480Z,101539.06
2022-08-26T09:30:36.573Z,101540.72
2022-08-26T09:33:10.214Z,101531.00
2022-08-26T09:35:43.922Z,101535.31
2022-08-26T09:38:29.027Z,101529.06
2022-08-26T09:41:00.672Z,101530.50
2022-08-26T09:43:31.153Z,101530.63
2022-08-26T09:46:22.592Z,101531.81
2022-08-26T09:48:53.214Z,101530.31
2022-08-26T09:51:24.716Z,101539.16
2022-08-26T09:53:57.835Z,101529.34
2022-08-26T09:56:40.055Z,101539.09
2022-08-26T09:59:12.736Z,101535.66
2022-08-26T10:01:46.324Z,101537.69
2022-08-26T10:04:30.651Z,101527.75
2022-08-26T10:07:07.603Z,101540.88
2022-08-26T10:09:44.566Z,101545.03
2022-08-26T10:12:19.317Z,101529.34
2022-08-26T10:14:53.263Z,101539.22
2022-08-26T10:17:34.392Z,101528.38
2022-08-26T10:20:22.467Z,101537.34
2022-08-26T10:23:02.475Z,101539.72
2022-08-26T10:25:37.533Z,101544.44
2022-08-26T10:28:52.233Z,101543.53
2022-08-26T10:31:28.356Z,101540.06
2022-08-26T10:34:00.782Z,101536.38
2022-08-26T10:37:13.937Z,101538.09
2022-08-26T10:39:47.942Z,101528.31
2022-08-26T10:42:48.159Z,101537.81
2022-08-26T10:45:25.408Z,101540.69
2022-08-26T10:47:58.172Z,101540.88
2022-08-26T10:50:33.456Z,101542.25
2022-08-26T10:53:19.296Z,101552.78
2022-08-26T10:56:18.529Z,101544.50
2022-08-26T10:58:59.558Z,101537.38
2022-08-26T11:01:54.671Z,101542.31
2022-08-26T11:04:48.325Z,101551.59
2022-08-26T11:07:39.188Z,101552.44
2022-08-26T11:10:36.275Z,101542.31
2022-08-26T11:13:07.898Z,101540.47
2022-08-26T11:15:44.135Z,101551.94
2022-08-26T11:18:35.318Z,101545.38
2022-08-26T11:21:04.961Z,101550.59
2022-08-26T11:23:50.558Z,101540.88
2022-08-26T11:26:35.831Z,101535.22
2022-08-26T11:29:13.864Z,101537.53
2022-08-26T11:31:43.306Z,101537.25
2022-08-26T11:34:16.920Z,101537.13
2022-08-26T11:36:49.356Z,101547.66
2022-08-26T11:39:31.773Z,101541.63
2022-08-26T11:42:41.023Z,101537.03
2022-08-26T11:45:28.531Z,101545.25
2022-08-26T11:47:58.929Z,101546.03
2022-08-26T11:50:30.979Z,101552.66
2022-08-26T11:53:07.577Z,101542.16
2022-08-26T11:55:45.058Z,101556.84
2022-08-26T11:58:18.430Z,101553.09
2022-08-26T12:01:11.533Z,101551.66
2022-08-26T12:03:51.143Z,101549.22
2022-08-26T12:06:38.870Z,101549.78
2022-08-26T12:09:23.751Z,101543.59
2022-08-26T12:11:55.621Z,101539.50
2022-08-26T12:14:29.265Z,101548.44
2022-08-26T12:17:12.534Z,101546.31
2022-08-26T12:19:42.539Z,101532.25
2022-08-26T12:22:31.290Z,101538.13
2022-08-26T12:25:04.536Z,101539.13
2022-08-26T12:27:44.090Z,101537.13
2022-08-26T12:30:22.802Z,101539.28
2022-08-26T12:33:22.089Z,101541.44
2022-08-26T12:35:56.388Z,101551.94
2022-08-26T12:38:28.301Z,101549.13
2022-08-26T12:40:58.443Z,101538.09
2022-08-26T12:43:47.380Z,101545.00
2022-08-26T12:46:32.507Z,101557.53
2022-08-26T12:49:03.435Z,101566.50
2022-08-26T12:51:41.962Z,101559.00
2022-08-26T12:54:18.953Z,101565.38
2022-08-26T12:56:48.393Z,101562.50
2022-08-26T12:59:26.773Z,101570.38
2022-08-26T13:01:57.037Z,101565.38
2022-08-26T13:04:46.216Z,101566.47
2022-08-26T13:07:21.464Z,101568.38
2022-08-26T13:09:53.140Z,101574.66
2022-08-26T13:12:37.403Z,101570.22
2022-08-26T13:15:08.179Z,101565.50
2022-08-26T13:17:37.800Z,101564.75
2022-08-26T13:20:07.690Z,101566.47
2022-08-26T13:22:37.610Z,101566.47
2022-08-26T13:25:07.460Z,101563.06
2022-08-26T13:27:37.017Z,101568.50
2022-08-26T13:30:08.537Z,101571.69
2022-08-26T13:32:38.642Z,101563.06
2022-08-26T13:35:13.881Z,101563.06
2022-08-26T13:37:43.254Z,101553.41
2022-08-26T13:40:13.354Z,101549.50
2022-08-26T13:42:49.490Z,101552.97
2022-08-26T13:45:19.652Z,101550.38
2022-08-26T13:47:49.155Z,101547.78
2022-08-26T13:50:18.806Z,101549.06
2022-08-26T13:52:48.255Z,101542.69
2022-08-26T13:55:17.703Z,101559.94
2022-08-26T13:57:47.117Z,101553.31
2022-08-26T14:00:17.276Z,101560.00
2022-08-26T14:02:46.601Z,101548.66
2022-08-26T14:05:16.250Z,101552.16
2022-08-26T14:07:46.022Z,101538.66
2022-08-26T14:10:15.458Z,101526.13
2022-08-26T14:12:45.756Z,101540.31
2022-08-26T14:15:16.369Z,101527.41
2022-08-26T14:17:46.687Z,101526.44
2022-08-26T14:20:21.246Z,101520.31
2022-08-26T14:23:12.725Z,101524.78
2022-08-26T14:25:43.343Z,101525.78
2022-08-26T14:28:12.740Z,101527.06
2022-08-26T14:30:44.879Z,101521.72
2022-08-26T14:33:17.712Z,101509.25
2022-08-26T14:35:48.803Z,101512.41
2022-08-26T14:38:19.223Z,101510.22
2022-08-26T14:40:48.691Z,101504.78
2022-08-26T14:43:18.521Z,101505.06
2022-08-26T14:45:47.893Z,101507.44
2022-08-26T14:48:17.326Z,101513.38
2022-08-26T14:50:47.004Z,101511.59
2022-08-26T14:53:30.049Z,101508.00
2022-08-26T14:55:59.559Z,101510.75
2022-08-26T14:58:33.827Z,101522.72
2022-08-26T15:01:04.588Z,101516.28
2022-08-26T15:03:33.956Z,101518.63
2022-08-26T15:06:03.507Z,101519.72
2022-08-26T15:08:36.550Z,101517.66
2022-08-26T15:11:06.879Z,101511.09
2022-08-26T15:13:36.256Z,101518.22
2022-08-26T15:16:06.020Z,101527.50
2022-08-26T15:18:35.582Z,101520.66
2022-08-26T15:21:07.274Z,101529.28
2022-08-26T15:23:38.442Z,101528.22
2022-08-26T15:26:11.029Z,101522.47
2022-08-26T15:28:43.779Z,101526.91
2022-08-26T15:31:13.194Z,101527.06
2022-08-26T15:33:42.720Z,101529.94
2022-08-26T15:36:12.588Z,101530.97
2022-08-26T15:38:46.810Z,101525.50
2022-08-26T15:41:16.360Z,101519.00
2022-08-26T15:43:45.829Z,101524.53
2022-08-26T15:46:16.143Z,101534.69
2022-08-26T15:48:45.667Z,101520.00
2022-08-26T15:51:29.404Z,101522.09
2022-08-26T15:53:59.562Z,101520.88
2022-08-26T15:56:31.273Z,101513.75
2022-08-26T15:59:01.404Z,101517.28
2022-08-26T16:01:31.563Z,101508.16
2022-08-26T16:04:01.622Z,101509.38
2022-08-26T16:06:35.060Z,101504.25
2022-08-26T16:09:04.623Z,101493.34
2022-08-26T16:11:35.978Z,101501.31
2022-08-26T16:14:07.405Z,101492.44
2022-08-26T16:16:41.987Z,101494.53
2022-08-26T16:19:11.965Z,101504.47
2022-08-26T16:21:42.627Z,101496.97
2022-08-26T16:24:12.714Z,101491.19
2022-08-26T16:26:44.013Z,101500.28
2022-08-26T16:29:18.231Z,101506.34
2022-08-26T16:31:47.708Z,101500.22
2022-08-26T16:34:17.417Z,101498.00
2022-08-26T16:36:46.720Z,101496.88
2022-08-26T16:39:16.157Z,101502.19
2022-08-26T16:41:45.528Z,101505.56
2022-08-26T16:44:14.895Z,101512.19
2022-08-26T16:46:46.682Z,101507.00
2022-08-26T16:49:16.208Z,101507.00
2022-08-26T16:51:45.551Z,101518.06
2022-08-26T16:54:15.308Z,101514.72
2022-08-26T16:56:44.784Z,101505.81
2022-08-26T16:59:14.301Z,101511.22
2022-08-26T17:01:43.800Z,101507.75
2022-08-26T17:04:13.122Z,101505.97
2022-08-26T17:06:42.474Z,101515.06
2022-08-26T17:09:11.880Z,101519.44
2022-08-26T17:11:41.687Z,101509.50
2022-08-26T17:14:14.153Z,101523.19
2022-08-26T17:16:43.526Z,101527.63
2022-08-26T17:19:12.931Z,101529.34
2022-08-26T17:21:42.518Z,101530.31
2022-08-26T17:24:11.906Z,101528.34
2022-08-26T17:26:44.333Z,101526.00
2022-08-26T17:29:22.942Z,101532.91
2022-08-26T17:31:52.311Z,101532.91
2022-08-26T17:34:22.340Z,101535.28
2022-08-26T17:36:52.533Z,101543.44
2022-08-26T17:39:21.889Z,101547.19
2022-08-26T17:41:51.629Z,101552.00
2022-08-26T17:44:20.947Z,101543.09
2022-08-26T17:46:50.356Z,101524.94
2022-08-26T17:49:19.731Z,101545.25
2022-08-26T17:51:49.101Z,101540.50
2022-08-26T17:54:18.565Z,101543.28
2022-08-26T17:56:47.892Z,101551.81
2022-08-26T17:59:17.452Z,101550.13
2022-08-26T18:01:47.565Z,101535.28
2022-08-26T18:04:17.621Z,101552.59
2022-08-26T18:06:47.061Z,101564.72
2022-08-26T18:09:16.416Z,101560.47
2022-08-26T18:11:45.871Z,101556.38
2022-08-26T18:14:15.232Z,101562.63
2022-08-26T18:16:44.675Z,101566.50
2022-08-26T18:19:16.904Z,101561.44
2022-08-26T18:21:46.840Z,101553.81
2022-08-26T18:24:16.204Z,101558.78
2022-08-26T18:26:49.543Z,101561.75
2022-08-26T18:29:20.607Z,101561.19
2022-08-26T18:31:51.229Z,101572.69
2022-08-26T18:34:21.125Z,101565.03
2022-08-26T18:36:51.131Z,101571.06
2022-08-26T18:39:23.610Z,101566.13
2022-08-26T18:41:55.109Z,101571.06
2022-08-26T18:44:25.493Z,101572.56
2022-08-26T18:46:55.018Z,101575.44
2022-08-26T18:49:24.664Z,101576.38
2022-08-26T18:51:54.658Z,101575.97
2022-08-26T18:54:24.151Z,101583.72
2022-08-26T18:56:53.516Z,101593.03
2022-08-26T18:59:28.389Z,101589.06
2022-08-26T19:01:59.847Z,101596.75
2022-08-26T19:04:29.713Z,101596.00
2022-08-26T19:06:59.059Z,101595.56
2022-08-26T19:09:28.946Z,101598.75
2022-08-26T19:11:58.277Z,101601.41
2022-08-26T19:14:27.836Z,101600.59
2022-08-26T19:16:57.334Z,101592.19
2022-08-26T19:19:26.886Z,101597.59
2022-08-26T19:21:56.669Z,101598.28
2022-08-26T19:24:28.163Z,101599.69
2022-08-26T19:27:00.684Z,101608.16
2022-08-26T19:29:32.263Z,101611.53
2022-08-26T19:32:02.172Z,101615.88
2022-08-26T19:34:31.797Z,101610.47
2022-08-26T19:37:01.384Z,101618.25
2022-08-26T19:39:30.683Z,101616.84
2022-08-26T19:42:00.444Z,101613.22
2022-08-26T19:44:42.257Z,101589.69
2022-08-26T19:47:15.569Z,101611.47
2022-08-26T19:49:45.766Z,101605.91
2022-08-26T19:52:15.165Z,101617.38
2022-08-26T19:54:44.577Z,101618.06
2022-08-26T19:57:14.560Z,101613.19
2022-08-26T19:59:46.268Z,101613.66
2022-08-26T20:02:16.283Z,101612.75
2022-08-26T20:04:45.836Z,101620.84
2022-08-26T20:07:18.945Z,101610.88
2022-08-26T20:09:49.178Z,101616.28
2022-08-26T20:12:18.957Z,101614.19
2022-08-26T20:14:48.966Z,101609.44
2022-08-26T20:17:18.755Z,101615.66
2022-08-26T20:20:00.799Z,101605.34
2022-08-26T20:22:30.425Z,101618.22
2022-08-26T20:24:59.774Z,101617.59
2022-08-26T20:27:34.725Z,101622.38
2022-08-26T20:30:09.738Z,101614.78
2022-08-26T20:32:40.031Z,101620.50
2022-08-26T20:35:11.932Z,101617.28
2022-08-26T20:37:42.609Z,101622.72
2022-08-26T20:40:14.430Z,101621.13
2022-08-26T20:42:43.848Z,101624.38
2022-08-26T20:45:13.870Z,101625.63
2022-08-26T20:47:43.915Z,101637.09
2022-08-26T20:50:13.342Z,101618.66
2022-08-26T20:52:42.687Z,101622.38
2022-08-26T20:55:12.263Z,101622.19
2022-08-26T20:57:43.395Z,101635.25
2022-08-26T21:00:16.300Z,101635.59
2022-08-26T21:02:46.999Z,101642.13
2022-08-26T21:05:16.405Z,101642.59
2022-08-26T21:07:45.779Z,101641.66
2022-08-26T21:10:15.372Z,101636.25
2022-08-26T21:12:45.357Z,101637.69
2022-08-26T21:15:16.392Z,101630.53
2022-08-26T21:17:46.074Z,101635.63
2022-08-26T21:20:15.411Z,101639.44
2022-08-26T21:22:44.825Z,101639.28
2022-08-26T21:25:14.273Z,101627.03
2022-08-26T21:27:43.639Z,101625.75
2022-08-26T21:30:13.541Z,101629.75
2022-08-26T21:32:42.932Z,101621.31
2022-08-26T21:35:12.704Z,101625.31
2022-08-26T21:37:42.123Z,101626.41
2022-08-26T21:40:12.275Z,101622.75
2022-08-26T21:42:41.735Z,101620.22
2022-08-26T21:45:13.377Z,101626.09
2022-08-26T21:47:42.880Z,101622.59
2022-08-26T21:50:13.612Z,101623.59
2022-08-26T21:52:42.933Z,101625.34
2022-08-26T21:55:12.756Z,101633.13
2022-08-26T21:57:42.144Z,101639.78
2022-08-26T22:00:14.091Z,101645.06
2022-08-26T22:02:43.636Z,101641.22
2022-08-26T22:05:13.097Z,101637.75
2022-08-26T22:07:42.487Z,101639.50
2022-08-26T22:10:11.925Z,101641.09
2022-08-26T22:12:44.951Z,101636.94
2022-08-26T22:15:15.831Z,101648.41
2022-08-26T22:17:45.620Z,101657.00
2022-08-26T22:20:16.518Z,101657.00
2022-08-26T22:22:46.242Z,101654.47
2022-08-26T22:25:16.767Z,101651.59
2022-08-26T22:27:46.204Z,101657.50
2022-08-26T22:30:15.850Z,101648.13
2022-08-26T22:32:45.885Z,101653.84
2022-08-26T22:35:29.135Z,101650.84
2022-08-26T22:37:59.476Z,101640.47
2022-08-26T22:40:29.732Z,101649.06
2022-08-26T22:43:00.318Z,101646.69
2022-08-26T22:45:31.350Z,101648.44
2022-08-26T22:48:05.057Z,101648.59
2022-08-26T22:50:36.808Z,101649.72
2022-08-26T22:53:06.195Z,101649.72
2022-08-26T22:55:35.687Z,101654.97
2022-08-26T22:58:05.088Z,101657.81
2022-08-26T23:00:35.211Z,101651.00
2022-08-26T23:03:05.803Z,101643.03
2022-08-26T23:05:35.731Z,101651.28
2022-08-26T23:08:05.356Z,101652.91
2022-08-26T23:10:37.845Z,101652.25
2022-08-26T23:13:08.527Z,101655.75
2022-08-26T23:15:38.507Z,101646.06
2022-08-26T23:18:08.096Z,101646.06
2022-08-26T23:20:40.957Z,101652.59
2022-08-26T23:23:10.891Z,101654.97
2022-08-26T23:25:41.596Z,101652.91
2022-08-26T23:28:12.503Z,101650.03
2022-08-26T23:30:41.905Z,101650.84
2022-08-26T23:33:11.180Z,101646.53
2022-08-26T23:35:38.553Z,101648.59
2022-08-26T23:38:11.777Z,101641.13
2022-08-26T23:40:44.883Z,101643.03
2022-08-26T23:43:16.588Z,101648.75
2022-08-26T23:45:46.035Z,101645.41
2022-08-26T23:48:15.357Z,101632.88
2022-08-26T23:51:01.255Z,101636.97
2022-08-26T23:53:30.603Z,101638.91
2022-08-26T23:55:59.900Z,101634.44
2022-08-26T23:58:29.594Z,101632.53
